sensor_id;sensor_type;location;lat;lon;timestamp;pressure;altitude;pressure_sealevel;temperature
69597;BMP180;56802;51.184;-115.558;2022-12-11T00:01:20;84854.80;;;-3.40
69597;BMP180;56802;51.184;-115.558;2022-12-11T00:03:49;84856.60;;;-3.40
69597;BMP180;56802;51.184;-115.558;2022-12-11T00:06:22;84860.80;;;-3.38
69597;BMP180;56802;51.184;-115.558;2022-12-11T00:08:52;84859.40;;;-3.30
69597;BMP180;56802;51.184;-115.558;2022-12-11T00:11:22;84855.80;;;-3.30
69597;BMP180;56802;51.184;-115.558;2022-12-11T00:13:51;84857.00;;;-3.30
69597;BMP180;56802;51.184;-115.558;2022-12-11T00:16:20;84858.80;;;-3.30
69597;BMP180;56802;51.184;-115.558;2022-12-11T00:18:54;84858.00;;;-3.30
69597;BMP180;56802;51.184;-115.558;2022-12-11T00:21:23;84866.40;;;-3.30
69597;BMP180;56802;51.184;-115.558;2022-12-11T00:23:53;84875.20;;;-3.30
69597;BMP180;56802;51.184;-115.558;2022-12-11T00:26:22;84874.20;;;-3.40
69597;BMP180;56802;51.184;-115.558;2022-12-11T00:28:54;84873.00;;;-3.50
69597;BMP180;56802;51.184;-115.558;2022-12-11T00:31:24;84880.60;;;-3.52
69597;BMP180;56802;51.184;-115.558;2022-12-11T00:33:53;84879.60;;;-3.56
69597;BMP180;56802;51.184;-115.558;2022-12-11T00:36:26;84877.40;;;-3.60
69597;BMP180;56802;51.184;-115.558;2022-12-11T00:38:54;84882.00;;;-3.60
69597;BMP180;56802;51.184;-115.558;2022-12-11T00:41:24;84882.80;;;-3.60
69597;BMP180;56802;51.184;-115.558;2022-12-11T00:43:52;84886.60;;;-3.62
69597;BMP180;56802;51.184;-115.558;2022-12-11T00:46:21;84891.40;;;-3.70
69597;BMP180;56802;51.184;-115.558;2022-12-11T00:48:50;84891.60;;;-3.70
69597;BMP180;56802;51.184;-115.558;2022-12-11T00:51:20;84899.00;;;-3.76
69597;BMP180;56802;51.184;-115.558;2022-12-11T00:53:49;84897.40;;;-3.80
69597;BMP180;56802;51.184;-115.558;2022-12-11T00:56:21;84889.80;;;-3.80
69597;BMP180;56802;51.184;-115.558;2022-12-11T00:58:50;84883.80;;;-3.80
69597;BMP180;56802;51.184;-115.558;2022-12-11T01:01:22;84900.80;;;-3.80
69597;BMP180;56802;51.184;-115.558;2022-12-11T01:03:53;84906.00;;;-3.80
69597;BMP180;56802;51.184;-115.558;2022-12-11T01:06:24;84910.60;;;-3.80
69597;BMP180;56802;51.184;-115.558;2022-12-11T01:08:54;84913.20;;;-3.80
69597;BMP180;56802;51.184;-115.558;2022-12-11T01:11:42;84895.20;;;-3.84
69597;BMP180;56802;51.184;-115.558;2022-12-11T01:14:17;84905.40;;;-3.90
69597;BMP180;56802;51.184;-115.558;2022-12-11T01:16:46;84901.80;;;-3.90
69597;BMP180;56802;51.184;-115.558;2022-12-11T01:19:15;84907.40;;;-3.90
69597;BMP180;56802;51.184;-115.558;2022-12-11T01:21:44;84913.00;;;-3.90
69597;BMP180;56802;51.184;-115.558;2022-12-11T01:24:13;84912.40;;;-3.90
69597;BMP180;56802;51.184;-115.558;2022-12-11T01:26:42;84912.20;;;-3.90
69597;BMP180;56802;51.184;-115.558;2022-12-11T01:29:10;84913.20;;;-3.90
69597;BMP180;56802;51.184;-115.558;2022-12-11T01:31:40;84913.80;;;-3.90
69597;BMP180;56802;51.184;-115.558;2022-12-11T01:34:08;84918.60;;;-3.90
69597;BMP180;56802;51.184;-115.558;2022-12-11T01:36:37;84920.80;;;-3.90
69597;BMP180;56802;51.184;-115.558;2022-12-11T01:39:06;84924.40;;;-3.90
69597;BMP180;56802;51.184;-115.558;2022-12-11T01:41:35;84918.00;;;-3.90
69597;BMP180;56802;51.184;-115.558;2022-12-11T01:46:59;84926.00;;;-3.96
69597;BMP180;56802;51.184;-115.558;2022-12-11T01:49:28;84924.20;;;-4.00
69597;BMP180;56802;51.184;-115.558;2022-12-11T01:52:17;84926.80;;;-4.00
69597;BMP180;56802;51.184;-115.558;2022-12-11T01:54:48;84925.80;;;-4.00
69597;BMP180;56802;51.184;-115.558;2022-12-11T01:57:18;84924.60;;;-4.00
69597;BMP180;56802;51.184;-115.558;2022-12-11T01:59:48;84927.80;;;-4.00
69597;BMP180;56802;51.184;-115.558;2022-12-11T02:02:25;84928.20;;;-3.90
69597;BMP180;56802;51.184;-115.558;2022-12-11T02:04:55;84927.40;;;-3.90
69597;BMP180;56802;51.184;-115.558;2022-12-11T02:07:24;84922.80;;;-3.90
69597;BMP180;56802;51.184;-115.558;2022-12-11T02:09:53;84920.20;;;-3.84
69597;BMP180;56802;51.184;-115.558;2022-12-11T02:15:59;84920.20;;;-3.82
69597;BMP180;56802;51.184;-115.558;2022-12-11T02:18:47;84923.40;;;-3.90
69597;BMP180;56802;51.184;-115.558;2022-12-11T02:21:27;84930.20;;;-3.90
69597;BMP180;56802;51.184;-115.558;2022-12-11T02:24:31;84929.00;;;-3.90
69597;BMP180;56802;51.184;-115.558;2022-12-11T02:29:58;84931.80;;;-3.90
69597;BMP180;56802;51.184;-115.558;2022-12-11T02:32:52;84935.60;;;-3.88
69597;BMP180;56802;51.184;-115.558;2022-12-11T02:35:31;84936.00;;;-3.90
69597;BMP180;56802;51.184;-115.558;2022-12-11T02:38:31;84938.00;;;-3.88
69597;BMP180;56802;51.184;-115.558;2022-12-11T02:41:04;84936.80;;;-3.86
69597;BMP180;56802;51.184;-115.558;2022-12-11T02:43:37;84936.80;;;-3.80
69597;BMP180;56802;51.184;-115.558;2022-12-11T02:46:07;84939.80;;;-3.80
69597;BMP180;56802;51.184;-115.558;2022-12-11T02:48:39;84939.80;;;-3.80
69597;BMP180;56802;51.184;-115.558;2022-12-11T02:51:13;84940.40;;;-3.80
69597;BMP180;56802;51.184;-115.558;2022-12-11T02:53:45;84940.00;;;-3.80
69597;BMP180;56802;51.184;-115.558;2022-12-11T02:56:26;84941.00;;;-3.80
69597;BMP180;56802;51.184;-115.558;2022-12-11T02:59:09;84940.40;;;-3.80
69597;BMP180;56802;51.184;-115.558;2022-12-11T03:01:41;84943.60;;;-3.80
69597;BMP180;56802;51.184;-115.558;2022-12-11T03:04:11;84945.20;;;-3.80
69597;BMP180;56802;51.184;-115.558;2022-12-11T03:06:47;84948.20;;;-3.80
69597;BMP180;56802;51.184;-115.558;2022-12-11T03:09:19;84950.20;;;-3.80
69597;BMP180;56802;51.184;-115.558;2022-12-11T03:11:47;84956.20;;;-3.80
69597;BMP180;56802;51.184;-115.558;2022-12-11T03:14:16;84957.60;;;-3.80
69597;BMP180;56802;51.184;-115.558;2022-12-11T03:17:07;84953.80;;;-3.70
69597;BMP180;56802;51.184;-115.558;2022-12-11T03:25:53;84974.00;;;-3.70
69597;BMP180;56802;51.184;-115.558;2022-12-11T03:28:44;84980.20;;;-3.70
69597;BMP180;56802;51.184;-115.558;2022-12-11T03:31:42;84978.60;;;-3.60
69597;BMP180;56802;51.184;-115.558;2022-12-11T03:34:53;84983.00;;;-3.60
69597;BMP180;56802;51.184;-115.558;2022-12-11T03:37:28;84978.60;;;-3.60
69597;BMP180;56802;51.184;-115.558;2022-12-11T03:40:06;84977.80;;;-3.60
69597;BMP180;56802;51.184;-115.558;2022-12-11T03:42:39;84980.80;;;-3.60
69597;BMP180;56802;51.184;-115.558;2022-12-11T03:45:12;84972.80;;;-3.58
69597;BMP180;56802;51.184;-115.558;2022-12-11T03:47:44;84971.40;;;-3.60
69597;BMP180;56802;51.184;-115.558;2022-12-11T03:50:17;84970.20;;;-3.60
69597;BMP180;56802;51.184;-115.558;2022-12-11T03:52:47;84973.40;;;-3.50
69597;BMP180;56802;51.184;-115.558;2022-12-11T03:55:18;84972.20;;;-3.50
69597;BMP180;56802;51.184;-115.558;2022-12-11T03:57:48;84972.40;;;-3.50
69597;BMP180;56802;51.184;-115.558;2022-12-11T04:00:20;84968.00;;;-3.50
69597;BMP180;56802;51.184;-115.558;2022-12-11T04:02:49;84974.20;;;-3.50
69597;BMP180;56802;51.184;-115.558;2022-12-11T04:05:45;84977.20;;;-3.50
69597;BMP180;56802;51.184;-115.558;2022-12-11T04:08:15;84971.20;;;-3.50
69597;BMP180;56802;51.184;-115.558;2022-12-11T04:10:45;84969.60;;;-3.50
69597;BMP180;56802;51.184;-115.558;2022-12-11T04:13:14;84964.60;;;-3.50
69597;BMP180;56802;51.184;-115.558;2022-12-11T04:15:43;84967.00;;;-3.60
69597;BMP180;56802;51.184;-115.558;2022-12-11T04:18:12;84971.40;;;-3.70
69597;BMP180;56802;51.184;-115.558;2022-12-11T04:20:59;84976.80;;;-3.70
69597;BMP180;56802;51.184;-115.558;2022-12-11T04:23:46;84970.20;;;-3.70
69597;BMP180;56802;51.184;-115.558;2022-12-11T04:26:33;84963.40;;;-3.70
69597;BMP180;56802;51.184;-115.558;2022-12-11T04:29:02;84960.40;;;-3.70
69597;BMP180;56802;51.184;-115.558;2022-12-11T04:31:31;84960.00;;;-3.70
69597;BMP180;56802;51.184;-115.558;2022-12-11T04:34:00;84963.00;;;-3.70
69597;BMP180;56802;51.184;-115.558;2022-12-11T04:36:29;84968.20;;;-3.70
69597;BMP180;56802;51.184;-115.558;2022-12-11T04:38:58;84967.80;;;-3.70
69597;BMP180;56802;51.184;-115.558;2022-12-11T04:41:27;84967.80;;;-3.78
69597;BMP180;56802;51.184;-115.558;2022-12-11T04:43:56;84964.60;;;-3.80
69597;BMP180;56802;51.184;-115.558;2022-12-11T04:46:25;84963.60;;;-3.80
69597;BMP180;56802;51.184;-115.558;2022-12-11T04:48:54;84959.40;;;-3.80
69597;BMP180;56802;51.184;-115.558;2022-12-11T04:51:25;84960.20;;;-3.80
69597;BMP180;56802;51.184;-115.558;2022-12-11T04:53:56;84956.60;;;-3.80
69597;BMP180;56802;51.184;-115.558;2022-12-11T04:56:25;84959.40;;;-3.80
69597;BMP180;56802;51.184;-115.558;2022-12-11T04:58:54;84954.40;;;-3.74
69597;BMP180;56802;51.184;-115.558;2022-12-11T05:01:23;84957.60;;;-3.76
69597;BMP180;56802;51.184;-115.558;2022-12-11T05:03:52;84952.60;;;-3.78
69597;BMP180;56802;51.184;-115.558;2022-12-11T05:06:21;84951.20;;;-3.80
69597;BMP180;56802;51.184;-115.558;2022-12-11T05:08:50;84943.40;;;-3.80
69597;BMP180;56802;51.184;-115.558;2022-12-11T05:11:19;84951.60;;;-3.80
69597;BMP180;56802;51.184;-115.558;2022-12-11T05:13:47;84952.60;;;-3.80
69597;BMP180;56802;51.184;-115.558;2022-12-11T05:16:17;84957.00;;;-3.90
69597;BMP180;56802;51.184;-115.558;2022-12-11T05:18:46;84959.60;;;-3.90
69597;BMP180;56802;51.184;-115.558;2022-12-11T05:21:15;84961.80;;;-3.98
69597;BMP180;56802;51.184;-115.558;2022-12-11T05:23:44;84959.00;;;-4.00
69597;BMP180;56802;51.184;-115.558;2022-12-11T05:26:17;84965.20;;;-4.00
69597;BMP180;56802;51.184;-115.558;2022-12-11T05:28:53;84960.80;;;-4.02
69597;BMP180;56802;51.184;-115.558;2022-12-11T05:31:26;84967.00;;;-4.08
69597;BMP180;56802;51.184;-115.558;2022-12-11T05:33:55;84965.20;;;-4.08
69597;BMP180;56802;51.184;-115.558;2022-12-11T05:36:31;84966.60;;;-4.10
69597;BMP180;56802;51.184;-115.558;2022-12-11T05:39:02;84973.80;;;-4.08
69597;BMP180;56802;51.184;-115.558;2022-12-11T05:41:32;84976.00;;;-4.10
69597;BMP180;56802;51.184;-115.558;2022-12-11T05:44:01;84983.00;;;-4.10
69597;BMP180;56802;51.184;-115.558;2022-12-11T05:46:30;84985.80;;;-4.10
69597;BMP180;56802;51.184;-115.558;2022-12-11T05:49:01;84986.20;;;-4.10
69597;BMP180;56802;51.184;-115.558;2022-12-11T05:51:32;84993.40;;;-4.10
69597;BMP180;56802;51.184;-115.558;2022-12-11T05:54:04;84988.00;;;-4.10
69597;BMP180;56802;51.184;-115.558;2022-12-11T05:56:34;84997.40;;;-4.16
69597;BMP180;56802;51.184;-115.558;2022-12-11T05:59:05;85000.40;;;-4.18
69597;BMP180;56802;51.184;-115.558;2022-12-11T06:01:39;85005.60;;;-4.20
69597;BMP180;56802;51.184;-115.558;2022-12-11T06:04:10;85010.00;;;-4.20
69597;BMP180;56802;51.184;-115.558;2022-12-11T06:06:40;85015.40;;;-4.20
69597;BMP180;56802;51.184;-115.558;2022-12-11T06:09:14;85011.00;;;-4.24
69597;BMP180;56802;51.184;-115.558;2022-12-11T06:11:43;85010.00;;;-4.30
69597;BMP180;56802;51.184;-115.558;2022-12-11T06:14:13;85010.40;;;-4.30
69597;BMP180;56802;51.184;-115.558;2022-12-11T06:16:41;85009.80;;;-4.30
69597;BMP180;56802;51.184;-115.558;2022-12-11T06:19:15;85004.40;;;-4.30
69597;BMP180;56802;51.184;-115.558;2022-12-11T06:21:45;85001.20;;;-4.30
69597;BMP180;56802;51.184;-115.558;2022-12-11T06:24:16;85005.60;;;-4.30
69597;BMP180;56802;51.184;-115.558;2022-12-11T06:26:44;85008.20;;;-4.30
69597;BMP180;56802;51.184;-115.558;2022-12-11T06:29:13;85009.80;;;-4.30
69597;BMP180;56802;51.184;-115.558;2022-12-11T06:31:43;85010.20;;;-4.40
69597;BMP180;56802;51.184;-115.558;2022-12-11T06:34:12;85013.60;;;-4.40
69597;BMP180;56802;51.184;-115.558;2022-12-11T06:36:41;85010.60;;;-4.40
69597;BMP180;56802;51.184;-115.558;2022-12-11T06:39:10;85010.80;;;-4.40
69597;BMP180;56802;51.184;-115.558;2022-12-11T06:41:40;85006.60;;;-4.40
69597;BMP180;56802;51.184;-115.558;2022-12-11T06:44:09;85009.00;;;-4.50
69597;BMP180;56802;51.184;-115.558;2022-12-11T06:46:38;85013.80;;;-4.50
69597;BMP180;56802;51.184;-115.558;2022-12-11T06:49:11;85020.00;;;-4.60
69597;BMP180;56802;51.184;-115.558;2022-12-11T06:51:40;85026.20;;;-4.60
69597;BMP180;56802;51.184;-115.558;2022-12-11T06:54:09;85024.00;;;-4.70
69597;BMP180;56802;51.184;-115.558;2022-12-11T06:56:38;85024.60;;;-4.70
69597;BMP180;56802;51.184;-115.558;2022-12-11T06:59:11;85026.20;;;-4.80
69597;BMP180;56802;51.184;-115.558;2022-12-11T07:01:43;85024.00;;;-4.80
69597;BMP180;56802;51.184;-115.558;2022-12-11T07:04:12;85021.80;;;-4.90
69597;BMP180;56802;51.184;-115.558;2022-12-11T07:06:41;85021.00;;;-4.90
69597;BMP180;56802;51.184;-115.558;2022-12-11T07:09:10;85021.60;;;-4.90
69597;BMP180;56802;51.184;-115.558;2022-12-11T07:11:39;85024.80;;;-4.94
69597;BMP180;56802;51.184;-115.558;2022-12-11T07:14:08;85025.40;;;-5.00
69597;BMP180;56802;51.184;-115.558;2022-12-11T07:16:37;85027.20;;;-5.00
69597;BMP180;56802;51.184;-115.558;2022-12-11T07:19:06;85030.20;;;-5.00
69597;BMP180;56802;51.184;-115.558;2022-12-11T07:21:35;85031.20;;;-5.10
69597;BMP180;56802;51.184;-115.558;2022-12-11T07:24:05;85042.80;;;-5.10
69597;BMP180;56802;51.184;-115.558;2022-12-11T07:26:34;85042.60;;;-5.20
69597;BMP180;56802;51.184;-115.558;2022-12-11T07:29:03;85051.00;;;-5.20
69597;BMP180;56802;51.184;-115.558;2022-12-11T07:31:32;85052.60;;;-5.30
69597;BMP180;56802;51.184;-115.558;2022-12-11T07:34:05;85055.20;;;-5.40
69597;BMP180;56802;51.184;-115.558;2022-12-11T07:36:34;85052.60;;;-5.40
69597;BMP180;56802;51.184;-115.558;2022-12-11T07:39:03;85053.60;;;-5.40
69597;BMP180;56802;51.184;-115.558;2022-12-11T07:41:32;85049.80;;;-5.46
69597;BMP180;56802;51.184;-115.558;2022-12-11T07:44:03;85052.80;;;-5.50
69597;BMP180;56802;51.184;-115.558;2022-12-11T07:46:33;85053.60;;;-5.50
69597;BMP180;56802;51.184;-115.558;2022-12-11T07:49:05;85051.00;;;-5.56
69597;BMP180;56802;51.184;-115.558;2022-12-11T07:51:36;85051.20;;;-5.60
69597;BMP180;56802;51.184;-115.558;2022-12-11T07:54:16;85058.20;;;-5.64
69597;BMP180;56802;51.184;-115.558;2022-12-11T07:56:46;85053.80;;;-5.70
69597;BMP180;56802;51.184;-115.558;2022-12-11T07:59:20;85055.80;;;-5.80
69597;BMP180;56802;51.184;-115.558;2022-12-11T08:01:50;85059.80;;;-5.88
69597;BMP180;56802;51.184;-115.558;2022-12-11T08:04:19;85069.60;;;-5.90
69597;BMP180;56802;51.184;-115.558;2022-12-11T08:06:48;85075.20;;;-5.90
69597;BMP180;56802;51.184;-115.558;2022-12-11T08:09:17;85076.00;;;-6.00
69597;BMP180;56802;51.184;-115.558;2022-12-11T08:11:50;85078.60;;;-6.00
69597;BMP180;56802;51.184;-115.558;2022-12-11T08:14:20;85082.20;;;-6.00
69597;BMP180;56802;51.184;-115.558;2022-12-11T08:16:49;85082.40;;;-6.00
69597;BMP180;56802;51.184;-115.558;2022-12-11T08:19:18;85082.80;;;-6.00
69597;BMP180;56802;51.184;-115.558;2022-12-11T08:21:47;85080.20;;;-6.02
69597;BMP180;56802;51.184;-115.558;2022-12-11T08:24:16;85073.80;;;-6.10
69597;BMP180;56802;51.184;-115.558;2022-12-11T08:26:48;85073.60;;;-6.20
69597;BMP180;56802;51.184;-115.558;2022-12-11T08:29:17;85075.80;;;-6.20
69597;BMP180;56802;51.184;-115.558;2022-12-11T08:31:47;85076.40;;;-6.20
69597;BMP180;56802;51.184;-115.558;2022-12-11T08:34:16;85079.20;;;-6.20
69597;BMP180;56802;51.184;-115.558;2022-12-11T08:36:45;85082.60;;;-6.20
69597;BMP180;56802;51.184;-115.558;2022-12-11T08:39:14;85082.60;;;-6.20
69597;BMP180;56802;51.184;-115.558;2022-12-11T08:41:43;85087.20;;;-6.20
69597;BMP180;56802;51.184;-115.558;2022-12-11T08:44:12;85094.60;;;-6.20
69597;BMP180;56802;51.184;-115.558;2022-12-11T08:46:43;85093.80;;;-6.20
69597;BMP180;56802;51.184;-115.558;2022-12-11T08:49:12;85090.40;;;-6.30
69597;BMP180;56802;51.184;-115.558;2022-12-11T08:51:41;85090.20;;;-6.30
69597;BMP180;56802;51.184;-115.558;2022-12-11T08:54:10;85091.20;;;-6.30
69597;BMP180;56802;51.184;-115.558;2022-12-11T08:56:39;85094.60;;;-6.34
69597;BMP180;56802;51.184;-115.558;2022-12-11T08:59:09;85097.20;;;-6.40
69597;BMP180;56802;51.184;-115.558;2022-12-11T09:01:38;85094.60;;;-6.40
69597;BMP180;56802;51.184;-115.558;2022-12-11T09:04:07;85089.40;;;-6.42
69597;BMP180;56802;51.184;-115.558;2022-12-11T09:06:35;85086.00;;;-6.50
69597;BMP180;56802;51.184;-115.558;2022-12-11T09:09:04;85098.40;;;-6.50
69597;BMP180;56802;51.184;-115.558;2022-12-11T09:11:36;85098.20;;;-6.60
69597;BMP180;56802;51.184;-115.558;2022-12-11T09:14:06;85102.20;;;-6.60
69597;BMP180;56802;51.184;-115.558;2022-12-11T09:16:39;85101.20;;;-6.70
69597;BMP180;56802;51.184;-115.558;2022-12-11T09:19:12;85104.60;;;-6.66
69597;BMP180;56802;51.184;-115.558;2022-12-11T09:21:43;85106.40;;;-6.70
69597;BMP180;56802;51.184;-115.558;2022-12-11T09:24:13;85117.00;;;-6.74
69597;BMP180;56802;51.184;-115.558;2022-12-11T09:26:42;85111.20;;;-6.80
69597;BMP180;56802;51.184;-115.558;2022-12-11T09:29:11;85117.80;;;-6.80
69597;BMP180;56802;51.184;-115.558;2022-12-11T09:31:41;85119.40;;;-6.80
69597;BMP180;56802;51.184;-115.558;2022-12-11T09:34:12;85124.40;;;-6.80
69597;BMP180;56802;51.184;-115.558;2022-12-11T09:36:42;85120.40;;;-6.84
69597;BMP180;56802;51.184;-115.558;2022-12-11T09:39:14;85121.20;;;-6.88
69597;BMP180;56802;51.184;-115.558;2022-12-11T09:42:07;85122.40;;;-6.90
69597;BMP180;56802;51.184;-115.558;2022-12-11T09:47:45;85129.40;;;-7.00
69597;BMP180;56802;51.184;-115.558;2022-12-11T09:50:23;85125.80;;;-7.00
69597;BMP180;56802;51.184;-115.558;2022-12-11T09:53:16;85133.00;;;-7.00
69597;BMP180;56802;51.184;-115.558;2022-12-11T09:56:21;85135.20;;;-7.00
69597;BMP180;56802;51.184;-115.558;2022-12-11T09:59:12;85133.80;;;-7.00
69597;BMP180;56802;51.184;-115.558;2022-12-11T10:05:02;85139.60;;;-7.00
69597;BMP180;56802;51.184;-115.558;2022-12-11T10:08:10;85138.40;;;-7.00
69597;BMP180;56802;51.184;-115.558;2022-12-11T10:13:54;85157.40;;;-7.00
69597;BMP180;56802;51.184;-115.558;2022-12-11T10:16:51;85158.40;;;-7.00
69597;BMP180;56802;51.184;-115.558;2022-12-11T10:19:29;85160.80;;;-7.00
69597;BMP180;56802;51.184;-115.558;2022-12-11T10:22:01;85161.00;;;-7.00
69597;BMP180;56802;51.184;-115.558;2022-12-11T10:24:39;85154.80;;;-6.98
69597;BMP180;56802;51.184;-115.558;2022-12-11T10:27:37;85146.60;;;-6.90
69597;BMP180;56802;51.184;-115.558;2022-12-11T10:35:51;85155.00;;;-6.80
69597;BMP180;56802;51.184;-115.558;2022-12-11T10:38:41;85159.40;;;-6.76
69597;BMP180;56802;51.184;-115.558;2022-12-11T10:41:19;85167.80;;;-6.70
69597;BMP180;56802;51.184;-115.558;2022-12-11T10:43:52;85166.40;;;-6.68
69597;BMP180;56802;51.184;-115.558;2022-12-11T10:46:25;85158.00;;;-6.60
69597;BMP180;56802;51.184;-115.558;2022-12-11T10:48:58;85159.80;;;-6.60
69597;BMP180;56802;51.184;-115.558;2022-12-11T10:56:59;85158.20;;;-6.60
69597;BMP180;56802;51.184;-115.558;2022-12-11T11:02:16;85148.20;;;-6.50
69597;BMP180;56802;51.184;-115.558;2022-12-11T11:04:47;85151.00;;;-6.50
69597;BMP180;56802;51.184;-115.558;2022-12-11T11:07:22;85149.40;;;-6.50
69597;BMP180;56802;51.184;-115.558;2022-12-11T11:10:15;85154.00;;;-6.50
69597;BMP180;56802;51.184;-115.558;2022-12-11T11:12:54;85156.80;;;-6.42
69597;BMP180;56802;51.184;-115.558;2022-12-11T11:15:29;85161.40;;;-6.40
69597;BMP180;56802;51.184;-115.558;2022-12-11T11:18:11;85156.60;;;-6.40
69597;BMP180;56802;51.184;-115.558;2022-12-11T11:20:47;85153.00;;;-6.40
69597;BMP180;56802;51.184;-115.558;2022-12-11T11:23:19;85153.00;;;-6.40
69597;BMP180;56802;51.184;-115.558;2022-12-11T11:26:00;85146.80;;;-6.40
69597;BMP180;56802;51.184;-115.558;2022-12-11T11:28:36;85146.60;;;-6.32
69597;BMP180;56802;51.184;-115.558;2022-12-11T11:31:15;85148.40;;;-6.32
69597;BMP180;56802;51.184;-115.558;2022-12-11T11:33:59;85149.40;;;-6.38
69597;BMP180;56802;51.184;-115.558;2022-12-11T11:36:34;85153.80;;;-6.40
69597;BMP180;56802;51.184;-115.558;2022-12-11T11:42:20;85152.20;;;-6.40
69597;BMP180;56802;51.184;-115.558;2022-12-11T11:45:19;85150.00;;;-6.40
69597;BMP180;56802;51.184;-115.558;2022-12-11T11:53:50;85164.80;;;-6.40
69597;BMP180;56802;51.184;-115.558;2022-12-11T11:56:35;85164.80;;;-6.40
69597;BMP180;56802;51.184;-115.558;2022-12-11T11:59:35;85165.60;;;-6.40
69597;BMP180;56802;51.184;-115.558;2022-12-11T12:02:17;85170.00;;;-6.40
69597;BMP180;56802;51.184;-115.558;2022-12-11T12:04:47;85170.40;;;-6.40
69597;BMP180;56802;51.184;-115.558;2022-12-11T12:07:44;85179.00;;;-6.40
69597;BMP180;56802;51.184;-115.558;2022-12-11T12:11:04;85181.00;;;-6.44
69597;BMP180;56802;51.184;-115.558;2022-12-11T12:25:17;85195.00;;;-6.50
69597;BMP180;56802;51.184;-115.558;2022-12-11T12:31:59;85213.20;;;-6.50
69597;BMP180;56802;51.184;-115.558;2022-12-11T12:37:57;85232.20;;;-6.50
69597;BMP180;56802;51.184;-115.558;2022-12-11T12:44:12;85231.00;;;-6.50
69597;BMP180;56802;51.184;-115.558;2022-12-11T12:47:07;85224.60;;;-6.50
69597;BMP180;56802;51.184;-115.558;2022-12-11T12:49:41;85223.00;;;-6.50
69597;BMP180;56802;51.184;-115.558;2022-12-11T12:52:36;85222.20;;;-6.50
69597;BMP180;56802;51.184;-115.558;2022-12-11T13:00:40;85226.20;;;-6.40
69597;BMP180;56802;51.184;-115.558;2022-12-11T13:06:08;85242.20;;;-6.40
69597;BMP180;56802;51.184;-115.558;2022-12-11T13:08:48;85247.40;;;-6.40
69597;BMP180;56802;51.184;-115.558;2022-12-11T13:11:20;85251.60;;;-6.40
69597;BMP180;56802;51.184;-115.558;2022-12-11T13:16:51;85253.00;;;-6.36
69597;BMP180;56802;51.184;-115.558;2022-12-11T13:27:38;85243.60;;;-6.30
69597;BMP180;56802;51.184;-115.558;2022-12-11T13:33:16;85243.20;;;-6.48
69597;BMP180;56802;51.184;-115.558;2022-12-11T13:35:45;85243.20;;;-6.50
69597;BMP180;56802;51.184;-115.558;2022-12-11T13:38:18;85238.20;;;-6.60
69597;BMP180;56802;51.184;-115.558;2022-12-11T13:40:54;85238.80;;;-6.64
69597;BMP180;56802;51.184;-115.558;2022-12-11T13:43:30;85241.40;;;-6.62
69597;BMP180;56802;51.184;-115.558;2022-12-11T13:46:06;85244.40;;;-6.62
69597;BMP180;56802;51.184;-115.558;2022-12-11T13:51:17;85248.20;;;-6.68
69597;BMP180;56802;51.184;-115.558;2022-12-11T13:53:47;85243.20;;;-6.68
69597;BMP180;56802;51.184;-115.558;2022-12-11T13:56:19;85249.00;;;-6.70
69597;BMP180;56802;51.184;-115.558;2022-12-11T13:58:49;85246.20;;;-6.70
69597;BMP180;56802;51.184;-115.558;2022-12-11T14:01:29;85245.20;;;-6.70
69597;BMP180;56802;51.184;-115.558;2022-12-11T14:04:18;85245.80;;;-6.74
69597;BMP180;56802;51.184;-115.558;2022-12-11T14:06:48;85251.60;;;-6.72
69597;BMP180;56802;51.184;-115.558;2022-12-11T14:09:27;85248.40;;;-6.80
69597;BMP180;56802;51.184;-115.558;2022-12-11T14:12:00;85254.00;;;-6.80
69597;BMP180;56802;51.184;-115.558;2022-12-11T14:14:42;85260.80;;;-6.80
69597;BMP180;56802;51.184;-115.558;2022-12-11T14:17:16;85257.20;;;-6.80
69597;BMP180;56802;51.184;-115.558;2022-12-11T14:19:49;85267.20;;;-6.80
69597;BMP180;56802;51.184;-115.558;2022-12-11T14:22:22;85269.40;;;-6.80
69597;BMP180;56802;51.184;-115.558;2022-12-11T14:25:01;85270.00;;;-6.80
69597;BMP180;56802;51.184;-115.558;2022-12-11T14:27:51;85271.60;;;-6.80
69597;BMP180;56802;51.184;-115.558;2022-12-11T14:30:23;85264.80;;;-6.80
69597;BMP180;56802;51.184;-115.558;2022-12-11T14:33:01;85265.60;;;-6.80
69597;BMP180;56802;51.184;-115.558;2022-12-11T14:35:39;85260.20;;;-6.80
69597;BMP180;56802;51.184;-115.558;2022-12-11T14:38:27;85256.00;;;-6.74
69597;BMP180;56802;51.184;-115.558;2022-12-11T14:41:05;85258.20;;;-6.70
69597;BMP180;56802;51.184;-115.558;2022-12-11T14:43:43;85261.40;;;-6.70
69597;BMP180;56802;51.184;-115.558;2022-12-11T14:46:31;85260.60;;;-6.70
69597;BMP180;56802;51.184;-115.558;2022-12-11T14:49:28;85261.40;;;-6.70
69597;BMP180;56802;51.184;-115.558;2022-12-11T14:52:00;85260.80;;;-6.70
69597;BMP180;56802;51.184;-115.558;2022-12-11T14:54:37;85258.20;;;-6.80
69597;BMP180;56802;51.184;-115.558;2022-12-11T14:57:18;85259.00;;;-6.80
69597;BMP180;56802;51.184;-115.558;2022-12-11T14:59:50;85252.00;;;-6.82
69597;BMP180;56802;51.184;-115.558;2022-12-11T15:02:31;85257.00;;;-6.90
69597;BMP180;56802;51.184;-115.558;2022-12-11T15:05:16;85257.60;;;-7.00
69597;BMP180;56802;51.184;-115.558;2022-12-11T15:11:06;85260.80;;;-7.10
69597;BMP180;56802;51.184;-115.558;2022-12-11T15:13:55;85260.60;;;-7.10
69597;BMP180;56802;51.184;-115.558;2022-12-11T15:16:30;85262.60;;;-7.10
69597;BMP180;56802;51.184;-115.558;2022-12-11T15:19:01;85261.00;;;-7.10
69597;BMP180;56802;51.184;-115.558;2022-12-11T15:21:35;85265.00;;;-7.10
69597;BMP180;56802;51.184;-115.558;2022-12-11T15:24:17;85268.20;;;-7.14
69597;BMP180;56802;51.184;-115.558;2022-12-11T15:26:49;85270.60;;;-7.18
69597;BMP180;56802;51.184;-115.558;2022-12-11T15:29:37;85270.00;;;-7.10
69597;BMP180;56802;51.184;-115.558;2022-12-11T15:34:58;85278.40;;;-7.18
69597;BMP180;56802;51.184;-115.558;2022-12-11T15:37:31;85279.40;;;-7.20
69597;BMP180;56802;51.184;-115.558;2022-12-11T15:40:04;85276.80;;;-7.20
69597;BMP180;56802;51.184;-115.558;2022-12-11T15:42:40;85274.40;;;-7.28
69597;BMP180;56802;51.184;-115.558;2022-12-11T15:45:30;85271.40;;;-7.30
69597;BMP180;56802;51.184;-115.558;2022-12-11T15:48:00;85270.60;;;-7.30
69597;BMP180;56802;51.184;-115.558;2022-12-11T15:50:29;85274.00;;;-7.40
69597;BMP180;56802;51.184;-115.558;2022-12-11T15:52:57;85272.60;;;-7.40